createdAt,value
2017-12-30T00:01:53.809Z,30.30
2017-12-30T00:04:21.530Z,31.63
2017-12-30T00:06:49.232Z,31.30
2017-12-30T00:09:16.942Z,29.10
2017-12-30T00:11:45.404Z,32.17
2017-12-30T00:14:14.284Z,29.07
2017-12-30T00:16:41.982Z,32.50
2017-12-30T00:19:10.425Z,29.37
2017-12-30T00:21:38.152Z,29.27
2017-12-30T00:24:05.878Z,33.47
2017-12-30T00:26:34.360Z,32.50
2017-12-30T00:29:02.060Z,32.07
2017-12-30T00:31:29.717Z,34.00
2017-12-30T00:33:57.403Z,33.43
2017-12-30T00:36:25.065Z,32.13
2017-12-30T00:38:52.819Z,35.70
2017-12-30T00:41:20.513Z,31.37
2017-12-30T00:43:48.207Z,35.17
2017-12-30T00:46:15.907Z,36.93
2017-12-30T00:48:43.584Z,26.83
2017-12-30T00:51:11.321Z,38.03
2017-12-30T00:53:39.046Z,35.60
2017-12-30T00:56:06.734Z,33.00
2017-12-30T00:58:34.436Z,33.10
2017-12-30T01:01:02.104Z,30.93
2017-12-30T01:03:29.831Z,31.97
2017-12-30T01:05:57.645Z,33.17
2017-12-30T01:08:25.266Z,37.30
2017-12-30T01:10:52.962Z,30.00
2017-12-30T01:13:20.690Z,31.20
2017-12-30T01:15:48.423Z,26.03
2017-12-30T01:18:16.113Z,32.23
2017-12-30T01:20:44.587Z,30.30
2017-12-30T01:23:12.313Z,30.73
2017-12-30T01:25:39.983Z,30.77
2017-12-30T01:28:07.685Z,28.97
2017-12-30T01:30:35.398Z,26.93
2017-12-30T01:33:03.110Z,36.83
2017-12-30T01:35:31.764Z,30.03
2017-12-30T01:37:59.440Z,32.30
2017-12-30T01:40:27.130Z,25.70
2017-12-30T01:42:54.885Z,33.97
2017-12-30T01:45:23.323Z,28.03
2017-12-30T01:47:51.017Z,33.20
2017-12-30T01:50:18.744Z,31.70
2017-12-30T01:52:46.477Z,29.10
2017-12-30T01:55:14.153Z,34.37
2017-12-30T01:57:41.818Z,26.87
2017-12-30T02:00:09.465Z,30.57
2017-12-30T02:02:37.171Z,27.60
2017-12-30T02:05:04.890Z,33.27
2017-12-30T02:07:33.423Z,28.27
2017-12-30T02:10:01.124Z,26.90
2017-12-30T02:12:28.850Z,28.67
2017-12-30T02:14:56.580Z,26.47
2017-12-30T02:17:24.260Z,28.10
2017-12-30T02:19:51.982Z,26.57
2017-12-30T02:22:19.670Z,32.70
2017-12-30T02:24:47.344Z,27.97
2017-12-30T02:27:15.064Z,29.97
2017-12-30T02:29:43.509Z,25.27
2017-12-30T02:32:11.253Z,26.60
2017-12-30T02:34:39.083Z,31.37
2017-12-30T02:37:06.760Z,22.63
2017-12-30T02:39:35.247Z,26.77
2017-12-30T02:42:02.958Z,28.00
2017-12-30T02:44:30.621Z,27.27
2017-12-30T02:46:59.152Z,23.33
2017-12-30T02:49:26.832Z,25.20
2017-12-30T02:51:54.580Z,19.90
2017-12-30T02:54:23.021Z,24.57
2017-12-30T02:56:50.737Z,30.53
2017-12-30T02:59:18.448Z,26.40
2017-12-30T03:01:46.130Z,24.37
2017-12-30T03:04:15.028Z,28.70
2017-12-30T03:06:42.772Z,24.10
2017-12-30T03:09:10.427Z,25.90
2017-12-30T03:11:38.110Z,25.80
2017-12-30T03:14:05.813Z,22.37
2017-12-30T03:16:33.526Z,20.30
2017-12-30T03:19:01.227Z,23.63
2017-12-30T03:21:29.747Z,19.73
2017-12-30T03:23:57.424Z,22.40
2017-12-30T03:26:25.122Z,23.07
2017-12-30T03:28:52.784Z,19.30
2017-12-30T03:31:20.486Z,26.30
2017-12-30T03:33:48.198Z,15.13
2017-12-30T03:36:15.895Z,21.90
2017-12-30T03:38:44.386Z,23.77
2017-12-30T03:41:12.067Z,21.73
2017-12-30T03:43:39.711Z,19.57
2017-12-30T03:46:07.411Z,18.20
2017-12-30T03:48:35.201Z,21.83
2017-12-30T03:51:02.872Z,22.47
2017-12-30T03:53:30.535Z,14.90
2017-12-30T03:55:58.389Z,15.60
2017-12-30T03:58:26.072Z,15.73
2017-12-30T04:00:54.524Z,16.13
2017-12-30T04:03:22.213Z,16.27
2017-12-30T04:05:49.911Z,17.40
2017-12-30T04:08:17.562Z,19.70
2017-12-30T04:10:45.259Z,16.07
2017-12-30T04:13:12.928Z,21.33
2017-12-30T04:15:40.690Z,14.00
2017-12-30T04:18:08.362Z,16.63
2017-12-30T04:20:36.001Z,15.23
2017-12-30T04:23:03.690Z,12.90
2017-12-30T04:25:31.607Z,19.63
2017-12-30T04:28:00.066Z,16.50
2017-12-30T04:30:27.755Z,16.20
2017-12-30T04:32:55.459Z,17.20
2017-12-30T04:35:23.172Z,14.70
2017-12-30T04:37:51.643Z,18.07
2017-12-30T04:40:19.329Z,19.97
2017-12-30T04:42:47.774Z,13.37
2017-12-30T04:45:15.434Z,15.93
2017-12-30T04:47:43.128Z,13.80
2017-12-30T04:50:11.605Z,16.27
2017-12-30T04:52:40.101Z,14.80
2017-12-30T04:55:08.752Z,15.60
2017-12-30T04:57:36.488Z,10.73
2017-12-30T05:00:04.141Z,11.43
2017-12-30T05:02:31.759Z,14.77
2017-12-30T05:04:59.483Z,13.83
2017-12-30T05:07:27.115Z,17.90
2017-12-30T05:09:54.792Z,15.63
2017-12-30T05:12:22.462Z,15.63
2017-12-30T05:14:50.161Z,11.17
2017-12-30T05:17:17.851Z,13.23
2017-12-30T05:19:45.562Z,15.47
2017-12-30T05:22:13.258Z,20.07
2017-12-30T05:24:40.994Z,15.37
2017-12-30T05:27:08.677Z,18.07
2017-12-30T05:29:36.423Z,14.30
2017-12-30T05:32:04.108Z,19.77
2017-12-30T05:34:31.819Z,9.83
2017-12-30T05:36:59.620Z,16.87
2017-12-30T05:39:27.335Z,16.60
2017-12-30T05:41:55.020Z,16.87
2017-12-30T05:44:22.734Z,13.07
2017-12-30T05:46:50.436Z,14.83
2017-12-30T05:49:18.178Z,15.70
2017-12-30T05:51:46.630Z,22.03
2017-12-30T05:54:14.556Z,20.47
2017-12-30T05:56:42.286Z,22.33
2017-12-30T05:59:10.007Z,20.73
2017-12-30T06:01:37.717Z,15.27
2017-12-30T06:04:05.434Z,17.07
2017-12-30T06:06:33.041Z,12.03
2017-12-30T06:09:00.750Z,19.97
2017-12-30T06:11:28.427Z,16.63
2017-12-30T06:13:56.130Z,19.67
2017-12-30T06:16:23.827Z,15.47
2017-12-30T06:18:51.529Z,19.60
2017-12-30T06:21:19.195Z,12.93
2017-12-30T06:23:46.920Z,14.77
2017-12-30T06:26:14.576Z,15.87
2017-12-30T06:28:42.233Z,12.90
2017-12-30T06:31:10.730Z,16.97
2017-12-30T06:33:38.404Z,17.40
2017-12-30T06:36:06.072Z,14.57
2017-12-30T06:38:33.763Z,18.47
2017-12-30T06:41:01.410Z,16.90
2017-12-30T06:43:29.093Z,18.43
2017-12-30T06:45:57.931Z,18.13
2017-12-30T06:48:25.614Z,9.73
2017-12-30T06:50:53.327Z,15.37
2017-12-30T06:53:21.038Z,16.60
2017-12-30T06:55:48.750Z,12.93
2017-12-30T06:58:16.441Z,9.93
2017-12-30T07:00:44.146Z,16.73
2017-12-30T07:03:11.859Z,12.77
2017-12-30T07:05:39.508Z,8.33
2017-12-30T07:08:07.198Z,18.27
2017-12-30T07:10:34.885Z,14.30
2017-12-30T07:13:02.526Z,11.27
2017-12-30T07:15:30.480Z,13.50
2017-12-30T07:17:58.172Z,10.93
2017-12-30T07:20:25.886Z,12.03
2017-12-30T07:22:53.594Z,14.23
2017-12-30T07:25:21.234Z,12.23
2017-12-30T07:27:48.973Z,15.60
2017-12-30T07:30:16.671Z,12.43
2017-12-30T07:32:44.356Z,15.40
2017-12-30T07:35:12.078Z,15.17
2017-12-30T07:37:39.787Z,10.77
2017-12-30T07:40:07.517Z,13.57
2017-12-30T07:42:35.178Z,13.93
2017-12-30T07:45:03.054Z,14.13
2017-12-30T07:47:31.517Z,12.93
2017-12-30T07:50:00.045Z,11.43
2017-12-30T07:52:27.766Z,10.10
2017-12-30T07:54:55.491Z,11.63
2017-12-30T07:57:23.192Z,11.23
2017-12-30T07:59:50.869Z,13.67
2017-12-30T08:02:18.588Z,16.00
2017-12-30T08:04:46.271Z,7.53
2017-12-30T08:07:13.961Z,13.33
2017-12-30T08:09:41.591Z,17.43
2017-12-30T08:12:09.276Z,14.67
2017-12-30T08:14:37.149Z,18.77
2017-12-30T08:17:04.866Z,15.47
2017-12-30T08:19:32.553Z,12.33
2017-12-30T08:22:00.272Z,15.23
2017-12-30T08:24:27.914Z,11.57
2017-12-30T08:26:55.611Z,13.07
2017-12-30T08:29:23.287Z,19.43
2017-12-30T08:31:50.924Z,15.13
2017-12-30T08:34:18.624Z,18.53
2017-12-30T08:36:46.294Z,13.33
2017-12-30T08:39:13.997Z,18.50
2017-12-30T08:41:41.694Z,21.10
2017-12-30T08:44:10.316Z,16.87
2017-12-30T08:46:38.111Z,21.13
2017-12-30T08:49:06.568Z,17.43
2017-12-30T08:51:34.263Z,16.47
2017-12-30T08:54:02.010Z,13.27
2017-12-30T08:56:31.259Z,19.57
2017-12-30T08:58:59.047Z,18.33
2017-12-30T09:01:26.765Z,16.07
2017-12-30T09:03:55.179Z,15.77
2017-12-30T09:06:22.881Z,16.50
2017-12-30T09:08:50.579Z,14.33
2017-12-30T09:11:18.288Z,9.90
2017-12-30T09:13:46.026Z,18.60
2017-12-30T09:16:13.707Z,22.37
2017-12-30T09:18:41.415Z,14.50
2017-12-30T09:21:09.902Z,21.67
2017-12-30T09:23:38.285Z,16.83
2017-12-30T09:26:06.003Z,14.10
2017-12-30T09:28:33.788Z,12.57
2017-12-30T09:31:02.937Z,10.70
2017-12-30T09:33:30.675Z,9.50
2017-12-30T09:35:59.824Z,19.10
2017-12-30T09:38:27.547Z,13.27
2017-12-30T09:40:56.001Z,25.67
2017-12-30T09:43:23.694Z,18.97
2017-12-30T09:45:57.836Z,16.00
2017-12-30T09:48:25.527Z,10.80
2017-12-30T09:50:53.241Z,13.47
2017-12-30T09:53:22.435Z,18.70
2017-12-30T09:55:52.008Z,14.57
2017-12-30T09:58:19.749Z,12.17
2017-12-30T10:00:47.383Z,16.03
2017-12-30T10:03:15.116Z,17.83
2017-12-30T10:05:42.825Z,15.70
2017-12-30T10:08:10.526Z,13.47
2017-12-30T10:10:38.197Z,15.90
2017-12-30T10:13:05.912Z,20.10
2017-12-30T10:15:33.510Z,21.13
2017-12-30T10:18:01.209Z,11.63
2017-12-30T10:20:29.696Z,18.63
2017-12-30T10:22:58.167Z,13.23
2017-12-30T10:25:25.889Z,15.87
2017-12-30T10:27:53.599Z,11.40
2017-12-30T10:30:22.005Z,12.23
2017-12-30T10:32:49.710Z,12.53
2017-12-30T10:35:17.409Z,8.27
2017-12-30T10:37:45.851Z,8.73
2017-12-30T10:40:13.581Z,6.97
2017-12-30T10:42:41.263Z,10.00
2017-12-30T10:45:08.965Z,7.13
2017-12-30T10:47:36.641Z,5.60
2017-12-30T10:50:05.109Z,7.17
2017-12-30T10:52:32.775Z,9.10
2017-12-30T10:55:01.549Z,4.77
2017-12-30T10:57:29.225Z,5.97
2017-12-30T10:59:56.884Z,7.30
2017-12-30T11:02:24.570Z,7.87
2017-12-30T11:04:52.185Z,5.57
2017-12-30T11:07:19.788Z,5.73
2017-12-30T11:09:47.412Z,7.33
2017-12-30T11:12:15.079Z,7.00
2017-12-30T11:14:42.780Z,4.87
2017-12-30T11:17:10.486Z,6.80
2017-12-30T11:19:38.163Z,7.53
2017-12-30T11:22:05.851Z,4.63
2017-12-30T11:24:34.764Z,3.90
2017-12-30T11:27:02.447Z,4.97
2017-12-30T11:29:30.130Z,2.40
2017-12-30T11:31:58.591Z,2.63
2017-12-30T11:34:27.066Z,3.10
2017-12-30T11:36:54.772Z,4.13
2017-12-30T11:39:22.453Z,3.43
2017-12-30T11:41:50.152Z,3.03
2017-12-30T11:44:17.848Z,2.60
2017-12-30T11:46:45.532Z,2.40
2017-12-30T11:49:13.222Z,2.40
2017-12-30T11:51:40.938Z,2.73
2017-12-30T11:54:08.801Z,3.90
2017-12-30T11:56:36.502Z,5.80
2017-12-30T11:59:04.205Z,5.93
2017-12-30T12:01:31.910Z,3.83
2017-12-30T12:03:59.573Z,3.80
2017-12-30T12:06:27.258Z,2.67
2017-12-30T12:08:54.954Z,3.87
2017-12-30T12:11:22.659Z,3.80
2017-12-30T12:13:50.362Z,3.30
2017-12-30T12:16:18.043Z,4.10
2017-12-30T12:18:46.559Z,3.10
2017-12-30T12:21:14.257Z,3.73
2017-12-30T12:23:41.962Z,3.43
2017-12-30T12:26:10.341Z,4.00
2017-12-30T12:28:38.773Z,3.77
2017-12-30T12:31:06.494Z,3.67
2017-12-30T12:33:34.959Z,3.97
2017-12-30T12:36:03.383Z,5.73
2017-12-30T12:38:31.056Z,4.83
2017-12-30T12:40:58.748Z,5.23
2017-12-30T12:43:26.432Z,9.00
2017-12-30T12:45:55.093Z,7.20
2017-12-30T12:48:22.871Z,12.03
2017-12-30T12:50:50.548Z,13.50
2017-12-30T12:53:18.259Z,11.53
2017-12-30T12:55:45.848Z,15.70
2017-12-30T12:58:13.565Z,20.90
2017-12-30T13:00:41.266Z,23.77
2017-12-30T13:03:08.988Z,21.33
2017-12-30T13:05:37.430Z,23.90
2017-12-30T13:08:05.125Z,22.70
2017-12-30T13:10:33.577Z,28.37
2017-12-30T13:13:01.266Z,36.07
2017-12-30T13:15:30.957Z,42.23
2017-12-30T13:17:58.601Z,40.97
2017-12-30T13:20:26.293Z,51.80
2017-12-30T13:22:54.018Z,47.57
2017-12-30T13:25:21.738Z,45.20
2017-12-30T13:27:49.482Z,52.13
2017-12-30T13:30:17.143Z,49.67
2017-12-30T13:32:44.792Z,40.83
2017-12-30T13:35:12.459Z,64.67
2017-12-30T13:37:40.174Z,78.73
2017-12-30T13:40:08.385Z,66.87
2017-12-30T13:42:35.986Z,69.00
2017-12-30T13:45:05.594Z,69.57
2017-12-30T13:47:34.030Z,63.20
2017-12-30T13:50:01.645Z,70.77
2017-12-30T13:52:29.238Z,66.83
2017-12-30T13:54:56.948Z,62.03
2017-12-30T13:57:24.653Z,55.83
2017-12-30T13:59:52.321Z,47.83
2017-12-30T14:02:20.016Z,55.70
2017-12-30T14:04:47.685Z,60.53
2017-12-30T14:07:15.407Z,59.13
2017-12-30T14:09:43.118Z,49.17
2017-12-30T14:12:10.695Z,49.07
2017-12-30T14:14:39.250Z,54.70
2017-12-30T14:17:06.890Z,58.50
2017-12-30T14:19:34.536Z,54.53
2017-12-30T14:22:02.244Z,52.00
2017-12-30T14:24:29.977Z,40.93
2017-12-30T14:26:57.678Z,51.13
2017-12-30T14:29:25.379Z,48.37
2017-12-30T14:31:53.794Z,49.37
2017-12-30T14:34:21.383Z,53.67
2017-12-30T14:36:48.977Z,52.73
2017-12-30T14:39:17.438Z,45.83
2017-12-30T14:41:45.135Z,48.73
2017-12-30T14:46:46.711Z,47.03
2017-12-30T14:49:14.366Z,40.00
2017-12-30T14:51:42.186Z,53.37
2017-12-30T14:54:09.947Z,47.70
2017-12-30T14:56:37.653Z,38.17
2017-12-30T14:59:05.356Z,42.50
2017-12-30T15:01:33.034Z,39.10
2017-12-30T15:04:01.838Z,39.77
2017-12-30T15:06:29.496Z,36.73
2017-12-30T15:08:57.199Z,36.90
2017-12-30T15:11:24.906Z,36.30
2017-12-30T15:13:52.630Z,42.70
2017-12-30T15:16:20.363Z,33.10
2017-12-30T15:18:48.057Z,36.33
2017-12-30T15:21:16.568Z,39.13
2017-12-30T15:23:44.234Z,40.77
2017-12-30T15:26:12.922Z,38.43
2017-12-30T15:28:40.647Z,36.53
2017-12-30T15:31:09.040Z,32.63
2017-12-30T15:33:37.490Z,38.83
2017-12-30T15:36:05.161Z,36.37
2017-12-30T15:38:32.860Z,39.73
2017-12-30T15:41:00.571Z,40.33
2017-12-30T15:43:28.295Z,36.03
2017-12-30T15:45:55.985Z,40.47
2017-12-30T15:48:23.694Z,35.60
2017-12-30T15:50:52.156Z,37.93
2017-12-30T15:53:19.893Z,31.37
2017-12-30T15:55:48.532Z,39.10
2017-12-30T15:58:16.968Z,40.83
2017-12-30T16:00:44.680Z,38.67
2017-12-30T16:03:13.121Z,35.80
2017-12-30T16:05:40.830Z,44.47
2017-12-30T16:08:09.320Z,33.43
2017-12-30T16:10:37.032Z,30.17
2017-12-30T16:13:04.760Z,34.10
2017-12-30T16:15:32.478Z,43.73
2017-12-30T16:18:00.175Z,46.20
2017-12-30T16:20:27.898Z,42.43
2017-12-30T16:22:55.620Z,37.90
2017-12-30T16:25:24.546Z,38.83
2017-12-30T16:27:52.237Z,36.30
2017-12-30T16:30:19.896Z,35.47
2017-12-30T16:32:47.596Z,39.40
2017-12-30T16:35:15.234Z,36.97
2017-12-30T16:37:43.666Z,33.57
2017-12-30T16:40:11.324Z,41.80
2017-12-30T16:42:38.986Z,45.30
2017-12-30T16:45:06.604Z,37.37
2017-12-30T16:47:34.986Z,41.13
2017-12-30T16:50:03.428Z,33.17
2017-12-30T16:52:31.018Z,41.53
2017-12-30T16:54:59.854Z,37.70
2017-12-30T16:57:27.462Z,44.03
2017-12-30T16:59:55.177Z,39.70
2017-12-30T17:02:22.857Z,32.00
2017-12-30T17:04:50.526Z,35.43
2017-12-30T17:07:18.226Z,35.90
2017-12-30T17:09:45.924Z,28.97
2017-12-30T17:12:13.618Z,37.93
2017-12-30T17:14:41.298Z,28.90
2017-12-30T17:17:09.003Z,34.13
2017-12-30T17:19:37.467Z,34.07
2017-12-30T17:22:05.945Z,34.03
2017-12-30T17:24:34.633Z,40.93
2017-12-30T17:27:02.345Z,35.17
2017-12-30T17:29:30.073Z,34.63
2017-12-30T17:31:58.553Z,34.43
2017-12-30T17:34:26.258Z,37.03
2017-12-30T17:36:54.002Z,30.57
2017-12-30T17:39:21.720Z,31.93
2017-12-30T17:41:49.440Z,30.47
2017-12-30T17:44:17.151Z,46.17
2017-12-30T17:46:44.850Z,24.07
2017-12-30T17:49:12.562Z,27.63
2017-12-30T17:51:40.253Z,37.17
2017-12-30T17:54:09.038Z,27.20
2017-12-30T17:56:36.866Z,31.93
2017-12-30T17:59:04.525Z,27.27
2017-12-30T18:01:32.238Z,27.70
2017-12-30T18:03:59.989Z,27.87
2017-12-30T18:06:27.693Z,30.90
2017-12-30T18:08:55.423Z,33.23
2017-12-30T18:11:23.128Z,26.60
2017-12-30T18:13:56.340Z,28.93
2017-12-30T18:16:24.059Z,29.90
2017-12-30T18:18:52.530Z,33.40
2017-12-30T18:21:20.247Z,35.70
2017-12-30T18:23:47.948Z,37.70
2017-12-30T18:26:15.654Z,31.93
2017-12-30T18:28:43.375Z,36.20
2017-12-30T18:31:11.085Z,33.73
2017-12-30T18:33:38.821Z,34.93
2017-12-30T18:36:10.111Z,33.60
2017-12-30T18:38:37.822Z,36.47
2017-12-30T18:41:05.558Z,28.07
2017-12-30T18:43:33.271Z,34.30
2017-12-30T18:46:00.992Z,39.83
2017-12-30T18:48:28.634Z,32.83
2017-12-30T18:50:56.320Z,36.73
2017-12-30T18:53:23.981Z,31.30
2017-12-30T18:55:51.669Z,35.20
2017-12-30T18:58:19.388Z,39.80
2017-12-30T19:00:47.093Z,39.27
2017-12-30T19:03:14.779Z,43.43
2017-12-30T19:05:43.420Z,34.63
2017-12-30T19:08:11.096Z,39.03
2017-12-30T19:10:38.771Z,37.20
2017-12-30T19:13:06.469Z,41.60
2017-12-30T19:15:34.969Z,36.07
2017-12-30T19:18:02.662Z,36.43
2017-12-30T19:20:30.360Z,32.67
2017-12-30T19:22:58.068Z,37.20
2017-12-30T19:25:25.805Z,33.80
2017-12-30T19:27:54.299Z,28.00
2017-12-30T19:30:22.016Z,30.87
2017-12-30T19:32:49.750Z,23.50
2017-12-30T19:35:18.481Z,31.00
2017-12-30T19:37:46.198Z,32.70
2017-12-30T19:40:13.896Z,27.87
2017-12-30T19:42:41.636Z,28.13
2017-12-30T19:45:09.362Z,34.27
2017-12-30T19:47:36.982Z,28.83
2017-12-30T19:50:04.711Z,26.90
2017-12-30T19:52:32.391Z,16.33
2017-12-30T19:55:00.123Z,29.77
2017-12-30T19:57:27.787Z,24.57
2017-12-30T19:59:56.278Z,26.23
2017-12-30T20:02:23.990Z,31.50
2017-12-30T20:04:52.957Z,38.30
2017-12-30T20:07:20.635Z,36.63
2017-12-30T20:09:48.290Z,35.20
2017-12-30T20:12:16.727Z,43.00
2017-12-30T20:14:45.263Z,37.50
2017-12-30T20:17:12.918Z,40.53
2017-12-30T20:19:40.629Z,39.77
2017-12-30T20:22:08.364Z,42.37
2017-12-30T20:24:36.043Z,41.50
2017-12-30T20:27:03.780Z,37.50
2017-12-30T20:29:31.449Z,39.03
2017-12-30T20:31:59.171Z,40.37
2017-12-30T20:34:27.827Z,45.63
2017-12-30T20:36:55.543Z,44.53
2017-12-30T20:39:24.020Z,33.93
2017-12-30T20:41:51.715Z,38.43
2017-12-30T20:44:19.395Z,35.07
2017-12-30T20:46:47.074Z,38.90
2017-12-30T20:49:15.139Z,40.27
2017-12-30T20:51:43.612Z,35.63
2017-12-30T20:54:11.315Z,30.90
2017-12-30T20:56:38.989Z,37.37
2017-12-30T20:59:06.787Z,31.60
2017-12-30T21:01:34.539Z,33.33
2017-12-30T21:04:03.262Z,37.97
2017-12-30T21:06:30.999Z,24.17
2017-12-30T21:08:58.714Z,27.57
2017-12-30T21:11:27.193Z,24.33
2017-12-30T21:13:54.848Z,33.93
2017-12-30T21:16:23.317Z,35.43
2017-12-30T21:18:50.996Z,26.43
2017-12-30T21:21:19.390Z,34.17
2017-12-30T21:23:47.878Z,30.77
2017-12-30T21:26:15.551Z,29.80
2017-12-30T21:28:43.204Z,31.70
2017-12-30T21:31:11.020Z,25.87
2017-12-30T21:33:38.687Z,27.33
2017-12-30T21:36:06.390Z,32.17
2017-12-30T21:38:34.107Z,31.10
2017-12-30T21:41:01.806Z,30.90
2017-12-30T21:43:30.270Z,28.83
2017-12-30T21:45:57.981Z,28.83
2017-12-30T21:48:25.725Z,27.17
2017-12-30T21:50:54.178Z,32.47
2017-12-30T21:53:21.829Z,35.23
2017-12-30T21:55:50.525Z,28.07
2017-12-30T21:58:18.158Z,25.90
2017-12-30T22:00:45.981Z,31.90
2017-12-30T22:03:13.663Z,26.33
2017-12-30T22:05:41.381Z,19.20
2017-12-30T22:08:09.064Z,27.37
2017-12-30T22:10:37.540Z,26.50
2017-12-30T22:13:05.238Z,24.23
2017-12-30T22:15:32.944Z,27.40
2017-12-30T22:18:00.635Z,25.27
2017-12-30T22:20:28.360Z,24.93
2017-12-30T22:22:56.054Z,26.00
2017-12-30T22:25:24.753Z,25.53
2017-12-30T22:27:53.176Z,27.80
2017-12-30T22:30:20.876Z,23.03
2017-12-30T22:32:48.581Z,27.93
2017-12-30T22:35:17.056Z,22.47
2017-12-30T22:37:45.521Z,31.53
2017-12-30T22:40:13.215Z,28.37
2017-12-30T22:42:40.937Z,24.00
2017-12-30T22:45:08.634Z,27.43
2017-12-30T22:47:37.086Z,26.20
2017-12-30T22:50:04.761Z,26.30
2017-12-30T22:52:32.450Z,26.00
2017-12-30T22:55:01.111Z,24.17
2017-12-30T22:57:28.787Z,24.63
2017-12-30T22:59:57.228Z,29.57
2017-12-30T23:02:24.913Z,31.07
2017-12-30T23:04:52.616Z,28.60
2017-12-30T23:07:20.291Z,25.13
2017-12-30T23:09:47.983Z,31.07
2017-12-30T23:12:15.700Z,33.07
2017-12-30T23:14:43.406Z,30.97
2017-12-30T23:17:11.152Z,29.37
2017-12-30T23:19:38.776Z,36.03
2017-12-30T23:22:06.474Z,31.47
2017-12-30T23:24:35.426Z,34.13
2017-12-30T23:27:03.151Z,30.67
2017-12-30T23:29:30.816Z,35.10
2017-12-30T23:31:58.507Z,38.73
2017-12-30T23:34:26.141Z,29.27
2017-12-30T23:36:53.840Z,37.30
2017-12-30T23:39:21.512Z,33.73
2017-12-30T23:41:49.220Z,29.00
2017-12-30T23:44:16.898Z,35.83
2017-12-30T23:46:44.582Z,36.63
2017-12-30T23:49:12.293Z,34.47
2017-12-30T23:51:40.005Z,30.83
2017-12-30T23:54:08.630Z,40.93
2017-12-30T23:56:36.323Z,35.97
2017-12-30T23:59:03.937Z,36.37
